sensor_id;sensor_type;location;lat;lon;timestamp;P1;durP1;ratioP1;P2;durP2;ratioP2
30617;SDS011;17384;51.214;9.202;2022-07-23T00:00:24;26.37;;;15.63;;
30617;SDS011;17384;51.214;9.202;2022-07-23T00:02:49;28.25;;;15.63;;
30617;SDS011;17384;51.214;9.202;2022-07-23T00:05:15;31.17;;;17.83;;
30617;SDS011;17384;51.214;9.202;2022-07-23T00:07:40;28.70;;;15.43;;
30617;SDS011;17384;51.214;9.202;2022-07-23T00:10:05;25.15;;;14.90;;
30617;SDS011;17384;51.214;9.202;2022-07-23T00:12:31;34.05;;;16.85;;
30617;SDS011;17384;51.214;9.202;2022-07-23T00:14:56;25.30;;;14.70;;
30617;SDS011;17384;51.214;9.202;2022-07-23T00:17:22;24.17;;;14.93;;
30617;SDS011;17384;51.214;9.202;2022-07-23T00:19:47;23.52;;;14.38;;
30617;SDS011;17384;51.214;9.202;2022-07-23T00:22:12;21.23;;;14.50;;
30617;SDS011;17384;51.214;9.202;2022-07-23T00:24:38;28.33;;;14.30;;
30617;SDS011;17384;51.214;9.202;2022-07-23T00:27:03;25.85;;;14.18;;
30617;SDS011;17384;51.214;9.202;2022-07-23T00:29:28;24.98;;;14.27;;
30617;SDS011;17384;51.214;9.202;2022-07-23T00:31:54;24.40;;;15.15;;
30617;SDS011;17384;51.214;9.202;2022-07-23T00:34:19;27.85;;;15.75;;
30617;SDS011;17384;51.214;9.202;2022-07-23T00:36:44;29.93;;;17.07;;
30617;SDS011;17384;51.214;9.202;2022-07-23T00:39:10;26.23;;;15.87;;
30617;SDS011;17384;51.214;9.202;2022-07-23T00:41:35;25.20;;;15.20;;
30617;SDS011;17384;51.214;9.202;2022-07-23T00:44:20;25.80;;;15.53;;
30617;SDS011;17384;51.214;9.202;2022-07-23T00:46:46;31.15;;;16.77;;
30617;SDS011;17384;51.214;9.202;2022-07-23T00:49:11;26.17;;;15.75;;
30617;SDS011;17384;51.214;9.202;2022-07-23T00:51:37;27.77;;;16.77;;
30617;SDS011;17384;51.214;9.202;2022-07-23T00:54:02;26.77;;;16.63;;
30617;SDS011;17384;51.214;9.202;2022-07-23T00:56:27;29.40;;;18.05;;
30617;SDS011;17384;51.214;9.202;2022-07-23T00:58:53;32.35;;;17.88;;
30617;SDS011;17384;51.214;9.202;2022-07-23T01:01:18;27.63;;;17.40;;
30617;SDS011;17384;51.214;9.202;2022-07-23T01:03:43;28.73;;;16.73;;
30617;SDS011;17384;51.214;9.202;2022-07-23T01:06:09;26.57;;;16.53;;
30617;SDS011;17384;51.214;9.202;2022-07-23T01:08:34;32.35;;;17.55;;
30617;SDS011;17384;51.214;9.202;2022-07-23T01:11:00;33.45;;;17.92;;
30617;SDS011;17384;51.214;9.202;2022-07-23T01:13:25;30.77;;;17.03;;
30617;SDS011;17384;51.214;9.202;2022-07-23T01:15:50;32.90;;;16.67;;
30617;SDS011;17384;51.214;9.202;2022-07-23T01:18:15;29.20;;;16.17;;
30617;SDS011;17384;51.214;9.202;2022-07-23T01:20:41;26.58;;;15.45;;
30617;SDS011;17384;51.214;9.202;2022-07-23T01:23:06;27.47;;;16.67;;
30617;SDS011;17384;51.214;9.202;2022-07-23T01:25:31;25.75;;;15.15;;
30617;SDS011;17384;51.214;9.202;2022-07-23T01:27:57;31.13;;;17.05;;
30617;SDS011;17384;51.214;9.202;2022-07-23T01:30:23;30.55;;;17.98;;
30617;SDS011;17384;51.214;9.202;2022-07-23T01:32:48;26.08;;;15.60;;
30617;SDS011;17384;51.214;9.202;2022-07-23T01:35:13;36.95;;;17.17;;
30617;SDS011;17384;51.214;9.202;2022-07-23T01:37:38;37.75;;;19.20;;
30617;SDS011;17384;51.214;9.202;2022-07-23T01:40:04;40.08;;;18.85;;
30617;SDS011;17384;51.214;9.202;2022-07-23T01:42:30;39.72;;;19.88;;
30617;SDS011;17384;51.214;9.202;2022-07-23T01:44:55;36.45;;;18.75;;
30617;SDS011;17384;51.214;9.202;2022-07-23T01:47:20;38.80;;;18.23;;
30617;SDS011;17384;51.214;9.202;2022-07-23T01:49:45;37.08;;;20.08;;
30617;SDS011;17384;51.214;9.202;2022-07-23T01:52:11;39.53;;;19.00;;
30617;SDS011;17384;51.214;9.202;2022-07-23T01:54:37;40.58;;;20.67;;
30617;SDS011;17384;51.214;9.202;2022-07-23T01:57:03;35.28;;;19.77;;
30617;SDS011;17384;51.214;9.202;2022-07-23T01:59:28;38.53;;;20.55;;
30617;SDS011;17384;51.214;9.202;2022-07-23T02:01:53;38.83;;;20.53;;
30617;SDS011;17384;51.214;9.202;2022-07-23T02:04:19;37.35;;;20.20;;
30617;SDS011;17384;51.214;9.202;2022-07-23T02:06:45;36.70;;;19.67;;
30617;SDS011;17384;51.214;9.202;2022-07-23T02:09:10;38.80;;;20.40;;
30617;SDS011;17384;51.214;9.202;2022-07-23T02:11:35;42.45;;;21.88;;
30617;SDS011;17384;51.214;9.202;2022-07-23T02:14:01;33.45;;;20.02;;
30617;SDS011;17384;51.214;9.202;2022-07-23T02:16:26;42.40;;;21.80;;
30617;SDS011;17384;51.214;9.202;2022-07-23T02:18:51;41.60;;;22.50;;
30617;SDS011;17384;51.214;9.202;2022-07-23T02:21:17;46.20;;;24.00;;
30617;SDS011;17384;51.214;9.202;2022-07-23T02:23:42;42.10;;;23.92;;
30617;SDS011;17384;51.214;9.202;2022-07-23T02:26:07;57.38;;;26.27;;
30617;SDS011;17384;51.214;9.202;2022-07-23T02:28:32;46.87;;;22.80;;
30617;SDS011;17384;51.214;9.202;2022-07-23T02:30:58;47.63;;;24.17;;
30617;SDS011;17384;51.214;9.202;2022-07-23T02:33:23;44.85;;;23.63;;
30617;SDS011;17384;51.214;9.202;2022-07-23T02:35:48;46.77;;;23.77;;
30617;SDS011;17384;51.214;9.202;2022-07-23T02:38:14;52.03;;;26.15;;
30617;SDS011;17384;51.214;9.202;2022-07-23T02:40:39;48.30;;;23.93;;
30617;SDS011;17384;51.214;9.202;2022-07-23T02:43:04;45.88;;;23.67;;
30617;SDS011;17384;51.214;9.202;2022-07-23T02:45:30;43.03;;;23.63;;
30617;SDS011;17384;51.214;9.202;2022-07-23T02:47:55;50.13;;;23.70;;
30617;SDS011;17384;51.214;9.202;2022-07-23T02:50:20;49.88;;;25.35;;
30617;SDS011;17384;51.214;9.202;2022-07-23T02:52:46;48.35;;;23.60;;
30617;SDS011;17384;51.214;9.202;2022-07-23T02:55:11;39.63;;;22.47;;
30617;SDS011;17384;51.214;9.202;2022-07-23T02:57:36;39.90;;;22.77;;
30617;SDS011;17384;51.214;9.202;2022-07-23T03:00:02;39.35;;;21.38;;
30617;SDS011;17384;51.214;9.202;2022-07-23T03:02:28;41.85;;;23.63;;
30617;SDS011;17384;51.214;9.202;2022-07-23T03:04:53;42.77;;;22.07;;
30617;SDS011;17384;51.214;9.202;2022-07-23T03:07:18;45.58;;;22.48;;
30617;SDS011;17384;51.214;9.202;2022-07-23T03:09:44;38.42;;;21.20;;
30617;SDS011;17384;51.214;9.202;2022-07-23T03:12:09;41.72;;;21.75;;
30617;SDS011;17384;51.214;9.202;2022-07-23T03:14:34;37.35;;;21.98;;
30617;SDS011;17384;51.214;9.202;2022-07-23T03:17:00;39.67;;;23.63;;
30617;SDS011;17384;51.214;9.202;2022-07-23T03:19:25;35.40;;;21.77;;
30617;SDS011;17384;51.214;9.202;2022-07-23T03:21:51;36.63;;;22.25;;
30617;SDS011;17384;51.214;9.202;2022-07-23T03:24:16;36.25;;;22.70;;
30617;SDS011;17384;51.214;9.202;2022-07-23T03:26:43;39.35;;;22.63;;
30617;SDS011;17384;51.214;9.202;2022-07-23T03:29:08;38.40;;;22.10;;
30617;SDS011;17384;51.214;9.202;2022-07-23T03:31:34;37.97;;;21.35;;
30617;SDS011;17384;51.214;9.202;2022-07-23T03:33:59;40.67;;;22.42;;
30617;SDS011;17384;51.214;9.202;2022-07-23T03:36:24;32.03;;;19.42;;
30617;SDS011;17384;51.214;9.202;2022-07-23T03:38:50;38.75;;;21.45;;
30617;SDS011;17384;51.214;9.202;2022-07-23T03:41:16;35.72;;;20.17;;
30617;SDS011;17384;51.214;9.202;2022-07-23T03:43:41;36.60;;;20.25;;
30617;SDS011;17384;51.214;9.202;2022-07-23T03:46:06;45.28;;;22.88;;
30617;SDS011;17384;51.214;9.202;2022-07-23T03:48:31;36.75;;;22.27;;
30617;SDS011;17384;51.214;9.202;2022-07-23T03:50:57;40.13;;;22.43;;
30617;SDS011;17384;51.214;9.202;2022-07-23T03:53:22;38.85;;;22.40;;
30617;SDS011;17384;51.214;9.202;2022-07-23T03:55:47;40.27;;;21.93;;
30617;SDS011;17384;51.214;9.202;2022-07-23T03:58:13;41.55;;;23.25;;
30617;SDS011;17384;51.214;9.202;2022-07-23T04:00:38;50.17;;;24.08;;
30617;SDS011;17384;51.214;9.202;2022-07-23T04:03:03;41.88;;;22.70;;
30617;SDS011;17384;51.214;9.202;2022-07-23T04:05:28;45.47;;;22.17;;
30617;SDS011;17384;51.214;9.202;2022-07-23T04:07:54;39.15;;;22.75;;
30617;SDS011;17384;51.214;9.202;2022-07-23T04:10:19;38.80;;;21.57;;
30617;SDS011;17384;51.214;9.202;2022-07-23T04:12:44;46.15;;;23.65;;
30617;SDS011;17384;51.214;9.202;2022-07-23T04:15:10;40.22;;;21.27;;
30617;SDS011;17384;51.214;9.202;2022-07-23T04:17:35;33.88;;;21.27;;
30617;SDS011;17384;51.214;9.202;2022-07-23T04:20:01;32.23;;;18.93;;
30617;SDS011;17384;51.214;9.202;2022-07-23T04:22:26;35.40;;;19.33;;
30617;SDS011;17384;51.214;9.202;2022-07-23T04:24:51;37.27;;;21.03;;
30617;SDS011;17384;51.214;9.202;2022-07-23T04:27:17;32.63;;;18.70;;
30617;SDS011;17384;51.214;9.202;2022-07-23T04:29:42;37.43;;;21.13;;
30617;SDS011;17384;51.214;9.202;2022-07-23T04:32:07;35.95;;;20.95;;
30617;SDS011;17384;51.214;9.202;2022-07-23T04:34:33;39.45;;;20.17;;
30617;SDS011;17384;51.214;9.202;2022-07-23T04:36:58;40.20;;;22.45;;
30617;SDS011;17384;51.214;9.202;2022-07-23T04:39:23;36.83;;;21.53;;
30617;SDS011;17384;51.214;9.202;2022-07-23T04:41:49;35.80;;;21.65;;
30617;SDS011;17384;51.214;9.202;2022-07-23T04:44:14;48.00;;;23.80;;
30617;SDS011;17384;51.214;9.202;2022-07-23T04:46:39;41.33;;;21.73;;
30617;SDS011;17384;51.214;9.202;2022-07-23T04:49:04;31.40;;;20.03;;
30617;SDS011;17384;51.214;9.202;2022-07-23T04:51:30;33.47;;;19.88;;
30617;SDS011;17384;51.214;9.202;2022-07-23T04:53:55;34.63;;;20.70;;
30617;SDS011;17384;51.214;9.202;2022-07-23T04:56:20;36.80;;;21.20;;
30617;SDS011;17384;51.214;9.202;2022-07-23T04:58:46;37.57;;;19.77;;
30617;SDS011;17384;51.214;9.202;2022-07-23T05:01:11;34.35;;;19.60;;
30617;SDS011;17384;51.214;9.202;2022-07-23T05:03:36;32.17;;;19.63;;
30617;SDS011;17384;51.214;9.202;2022-07-23T05:06:02;39.85;;;21.08;;
30617;SDS011;17384;51.214;9.202;2022-07-23T05:08:28;30.05;;;17.83;;
30617;SDS011;17384;51.214;9.202;2022-07-23T05:10:53;40.97;;;20.50;;
30617;SDS011;17384;51.214;9.202;2022-07-23T05:13:18;34.83;;;18.77;;
30617;SDS011;17384;51.214;9.202;2022-07-23T05:15:44;34.17;;;17.60;;
30617;SDS011;17384;51.214;9.202;2022-07-23T05:18:10;39.92;;;19.25;;
30617;SDS011;17384;51.214;9.202;2022-07-23T05:20:35;33.03;;;19.10;;
30617;SDS011;17384;51.214;9.202;2022-07-23T05:23:00;32.97;;;18.63;;
30617;SDS011;17384;51.214;9.202;2022-07-23T05:25:25;29.07;;;16.83;;
30617;SDS011;17384;51.214;9.202;2022-07-23T05:27:51;31.43;;;17.30;;
30617;SDS011;17384;51.214;9.202;2022-07-23T05:30:16;24.92;;;17.73;;
30617;SDS011;17384;51.214;9.202;2022-07-23T05:32:42;32.50;;;17.80;;
30617;SDS011;17384;51.214;9.202;2022-07-23T05:35:07;30.47;;;18.87;;
30617;SDS011;17384;51.214;9.202;2022-07-23T05:37:32;29.67;;;16.50;;
30617;SDS011;17384;51.214;9.202;2022-07-23T05:40:04;30.60;;;18.83;;
30617;SDS011;17384;51.214;9.202;2022-07-23T05:42:32;27.75;;;16.38;;
30617;SDS011;17384;51.214;9.202;2022-07-23T05:44:57;31.35;;;16.52;;
30617;SDS011;17384;51.214;9.202;2022-07-23T05:47:23;29.03;;;15.47;;
30617;SDS011;17384;51.214;9.202;2022-07-23T05:49:48;24.40;;;16.42;;
30617;SDS011;17384;51.214;9.202;2022-07-23T05:52:14;25.33;;;14.57;;
30617;SDS011;17384;51.214;9.202;2022-07-23T05:54:39;24.90;;;15.50;;
30617;SDS011;17384;51.214;9.202;2022-07-23T05:57:04;23.57;;;15.03;;
30617;SDS011;17384;51.214;9.202;2022-07-23T05:59:30;25.97;;;13.43;;
30617;SDS011;17384;51.214;9.202;2022-07-23T06:01:55;23.80;;;14.45;;
30617;SDS011;17384;51.214;9.202;2022-07-23T06:04:20;30.03;;;14.43;;
30617;SDS011;17384;51.214;9.202;2022-07-23T06:06:46;27.37;;;13.43;;
30617;SDS011;17384;51.214;9.202;2022-07-23T06:09:11;22.67;;;13.70;;
30617;SDS011;17384;51.214;9.202;2022-07-23T06:11:38;26.75;;;13.27;;
30617;SDS011;17384;51.214;9.202;2022-07-23T06:14:04;25.35;;;14.10;;
30617;SDS011;17384;51.214;9.202;2022-07-23T06:16:29;25.87;;;13.77;;
30617;SDS011;17384;51.214;9.202;2022-07-23T06:18:54;18.92;;;12.77;;
30617;SDS011;17384;51.214;9.202;2022-07-23T06:21:20;29.07;;;14.20;;
30617;SDS011;17384;51.214;9.202;2022-07-23T06:23:45;19.17;;;10.98;;
30617;SDS011;17384;51.214;9.202;2022-07-23T06:26:10;28.03;;;13.17;;
30617;SDS011;17384;51.214;9.202;2022-07-23T06:28:36;23.67;;;12.37;;
30617;SDS011;17384;51.214;9.202;2022-07-23T06:31:01;18.88;;;12.07;;
30617;SDS011;17384;51.214;9.202;2022-07-23T06:33:26;19.20;;;11.43;;
30617;SDS011;17384;51.214;9.202;2022-07-23T06:35:52;22.65;;;12.00;;
30617;SDS011;17384;51.214;9.202;2022-07-23T06:38:17;20.00;;;12.40;;
30617;SDS011;17384;51.214;9.202;2022-07-23T06:40:43;17.73;;;11.38;;
30617;SDS011;17384;51.214;9.202;2022-07-23T06:43:09;19.65;;;10.82;;
30617;SDS011;17384;51.214;9.202;2022-07-23T06:45:35;19.23;;;11.60;;
30617;SDS011;17384;51.214;9.202;2022-07-23T06:48:00;23.05;;;10.93;;
30617;SDS011;17384;51.214;9.202;2022-07-23T06:50:27;19.88;;;11.20;;
30617;SDS011;17384;51.214;9.202;2022-07-23T06:52:52;27.75;;;11.70;;
30617;SDS011;17384;51.214;9.202;2022-07-23T06:55:18;23.77;;;10.75;;
30617;SDS011;17384;51.214;9.202;2022-07-23T06:57:43;22.27;;;10.27;;
30617;SDS011;17384;51.214;9.202;2022-07-23T07:00:09;19.40;;;10.48;;
30617;SDS011;17384;51.214;9.202;2022-07-23T07:02:34;16.58;;;9.93;;
30617;SDS011;17384;51.214;9.202;2022-07-23T07:04:59;15.70;;;10.00;;
30617;SDS011;17384;51.214;9.202;2022-07-23T07:07:25;20.13;;;10.80;;
30617;SDS011;17384;51.214;9.202;2022-07-23T07:09:50;18.97;;;10.83;;
30617;SDS011;17384;51.214;9.202;2022-07-23T07:12:15;18.93;;;9.47;;
30617;SDS011;17384;51.214;9.202;2022-07-23T07:14:40;14.13;;;9.67;;
30617;SDS011;17384;51.214;9.202;2022-07-23T07:17:06;15.25;;;10.25;;
30617;SDS011;17384;51.214;9.202;2022-07-23T07:19:31;16.23;;;9.43;;
30617;SDS011;17384;51.214;9.202;2022-07-23T07:21:56;18.20;;;10.10;;
30617;SDS011;17384;51.214;9.202;2022-07-23T07:24:22;11.60;;;8.20;;
30617;SDS011;17384;51.214;9.202;2022-07-23T07:26:47;13.88;;;8.82;;
30617;SDS011;17384;51.214;9.202;2022-07-23T07:29:12;15.77;;;7.73;;
30617;SDS011;17384;51.214;9.202;2022-07-23T07:31:37;14.50;;;8.32;;
30617;SDS011;17384;51.214;9.202;2022-07-23T07:34:03;12.63;;;7.60;;
30617;SDS011;17384;51.214;9.202;2022-07-23T07:36:28;11.70;;;7.20;;
30617;SDS011;17384;51.214;9.202;2022-07-23T07:38:53;11.85;;;6.00;;
30617;SDS011;17384;51.214;9.202;2022-07-23T07:41:19;7.85;;;4.90;;
30617;SDS011;17384;51.214;9.202;2022-07-23T07:43:48;7.97;;;4.60;;
30617;SDS011;17384;51.214;9.202;2022-07-23T07:46:13;11.25;;;4.25;;
30617;SDS011;17384;51.214;9.202;2022-07-23T07:48:38;6.97;;;4.43;;
30617;SDS011;17384;51.214;9.202;2022-07-23T07:51:09;8.27;;;4.70;;
30617;SDS011;17384;51.214;9.202;2022-07-23T07:53:37;8.30;;;5.43;;
30617;SDS011;17384;51.214;9.202;2022-07-23T07:56:03;7.55;;;5.80;;
30617;SDS011;17384;51.214;9.202;2022-07-23T07:58:28;14.45;;;5.78;;
30617;SDS011;17384;51.214;9.202;2022-07-23T08:00:54;7.63;;;4.80;;
30617;SDS011;17384;51.214;9.202;2022-07-23T08:03:19;7.17;;;4.50;;
30617;SDS011;17384;51.214;9.202;2022-07-23T08:05:44;7.30;;;4.47;;
30617;SDS011;17384;51.214;9.202;2022-07-23T08:08:09;7.55;;;5.32;;
30617;SDS011;17384;51.214;9.202;2022-07-23T08:10:39;7.40;;;4.95;;
30617;SDS011;17384;51.214;9.202;2022-07-23T08:13:05;8.80;;;4.22;;
30617;SDS011;17384;51.214;9.202;2022-07-23T08:15:30;6.00;;;3.95;;
30617;SDS011;17384;51.214;9.202;2022-07-23T08:17:56;9.27;;;4.13;;
30617;SDS011;17384;51.214;9.202;2022-07-23T08:20:22;6.28;;;3.25;;
30617;SDS011;17384;51.214;9.202;2022-07-23T08:25:14;5.55;;;4.03;;
30617;SDS011;17384;51.214;9.202;2022-07-23T08:27:40;6.10;;;3.88;;
30617;SDS011;17384;51.214;9.202;2022-07-23T08:30:06;6.85;;;4.10;;
30617;SDS011;17384;51.214;9.202;2022-07-23T08:32:31;6.88;;;3.47;;
30617;SDS011;17384;51.214;9.202;2022-07-23T08:34:56;8.90;;;5.10;;
30617;SDS011;17384;51.214;9.202;2022-07-23T08:37:22;14.30;;;5.50;;
30617;SDS011;17384;51.214;9.202;2022-07-23T08:39:47;6.27;;;3.70;;
30617;SDS011;17384;51.214;9.202;2022-07-23T08:42:15;9.37;;;5.57;;
30617;SDS011;17384;51.214;9.202;2022-07-23T08:44:42;11.27;;;5.20;;
30617;SDS011;17384;51.214;9.202;2022-07-23T08:47:09;9.38;;;5.15;;
30617;SDS011;17384;51.214;9.202;2022-07-23T08:49:35;9.02;;;5.38;;
30617;SDS011;17384;51.214;9.202;2022-07-23T08:52:00;5.03;;;3.67;;
30617;SDS011;17384;51.214;9.202;2022-07-23T08:54:26;10.95;;;5.43;;
30617;SDS011;17384;51.214;9.202;2022-07-23T08:56:51;9.03;;;5.03;;
30617;SDS011;17384;51.214;9.202;2022-07-23T08:59:16;8.90;;;5.40;;
30617;SDS011;17384;51.214;9.202;2022-07-23T09:01:42;7.53;;;4.22;;
30617;SDS011;17384;51.214;9.202;2022-07-23T09:04:07;8.43;;;5.53;;
30617;SDS011;17384;51.214;9.202;2022-07-23T09:06:32;7.27;;;5.37;;
30617;SDS011;17384;51.214;9.202;2022-07-23T09:08:58;8.73;;;5.45;;
30617;SDS011;17384;51.214;9.202;2022-07-23T09:11:40;6.63;;;4.88;;
30617;SDS011;17384;51.214;9.202;2022-07-23T09:14:10;6.35;;;4.47;;
30617;SDS011;17384;51.214;9.202;2022-07-23T09:16:35;7.47;;;4.70;;
30617;SDS011;17384;51.214;9.202;2022-07-23T09:19:01;11.23;;;5.33;;
30617;SDS011;17384;51.214;9.202;2022-07-23T09:21:28;8.82;;;5.82;;
30617;SDS011;17384;51.214;9.202;2022-07-23T09:26:20;6.53;;;3.77;;
30617;SDS011;17384;51.214;9.202;2022-07-23T09:28:50;9.10;;;4.82;;
30617;SDS011;17384;51.214;9.202;2022-07-23T09:31:15;8.30;;;3.90;;
30617;SDS011;17384;51.214;9.202;2022-07-23T09:33:40;6.67;;;4.80;;
30617;SDS011;17384;51.214;9.202;2022-07-23T09:36:06;8.47;;;4.63;;
30617;SDS011;17384;51.214;9.202;2022-07-23T09:38:34;8.85;;;4.15;;
30617;SDS011;17384;51.214;9.202;2022-07-23T09:41:08;6.03;;;3.70;;
30617;SDS011;17384;51.214;9.202;2022-07-23T09:43:33;5.47;;;3.70;;
30617;SDS011;17384;51.214;9.202;2022-07-23T09:48:42;5.72;;;3.50;;
30617;SDS011;17384;51.214;9.202;2022-07-23T09:51:07;5.73;;;2.83;;
30617;SDS011;17384;51.214;9.202;2022-07-23T09:53:32;4.70;;;3.60;;
30617;SDS011;17384;51.214;9.202;2022-07-23T09:55:58;5.37;;;3.30;;
30617;SDS011;17384;51.214;9.202;2022-07-23T09:58:24;9.45;;;3.80;;
30617;SDS011;17384;51.214;9.202;2022-07-23T10:00:51;5.72;;;3.55;;
30617;SDS011;17384;51.214;9.202;2022-07-23T10:03:17;5.43;;;3.13;;
30617;SDS011;17384;51.214;9.202;2022-07-23T10:05:42;5.22;;;2.90;;
30617;SDS011;17384;51.214;9.202;2022-07-23T10:08:10;6.53;;;2.85;;
30617;SDS011;17384;51.214;9.202;2022-07-23T10:10:36;6.78;;;3.47;;
30617;SDS011;17384;51.214;9.202;2022-07-23T10:13:02;4.50;;;2.55;;
30617;SDS011;17384;51.214;9.202;2022-07-23T10:15:51;5.95;;;2.95;;
30617;SDS011;17384;51.214;9.202;2022-07-23T10:18:16;8.73;;;3.78;;
30617;SDS011;17384;51.214;9.202;2022-07-23T10:20:41;5.40;;;2.60;;
30617;SDS011;17384;51.214;9.202;2022-07-23T10:23:22;4.28;;;2.60;;
30617;SDS011;17384;51.214;9.202;2022-07-23T10:25:52;4.97;;;2.75;;
30617;SDS011;17384;51.214;9.202;2022-07-23T10:36:19;9.70;;;3.33;;
30617;SDS011;17384;51.214;9.202;2022-07-23T10:41:14;5.70;;;2.92;;
30617;SDS011;17384;51.214;9.202;2022-07-23T10:43:39;3.63;;;2.57;;
30617;SDS011;17384;51.214;9.202;2022-07-23T10:49:25;5.55;;;2.92;;
30617;SDS011;17384;51.214;9.202;2022-07-23T10:54:35;5.45;;;2.80;;
30617;SDS011;17384;51.214;9.202;2022-07-23T10:59:26;5.27;;;3.13;;
30617;SDS011;17384;51.214;9.202;2022-07-23T11:01:51;7.70;;;3.00;;
30617;SDS011;17384;51.214;9.202;2022-07-23T11:04:16;6.15;;;3.53;;
30617;SDS011;17384;51.214;9.202;2022-07-23T11:07:27;4.40;;;3.07;;
30617;SDS011;17384;51.214;9.202;2022-07-23T11:09:38;5.57;;;3.13;;
30617;SDS011;17384;51.214;9.202;2022-07-23T11:17:22;4.95;;;2.60;;
30617;SDS011;17384;51.214;9.202;2022-07-23T11:22:35;6.75;;;2.90;;
30617;SDS011;17384;51.214;9.202;2022-07-23T11:25:00;8.05;;;3.67;;
30617;SDS011;17384;51.214;9.202;2022-07-23T11:27:42;5.38;;;3.33;;
30617;SDS011;17384;51.214;9.202;2022-07-23T11:30:08;4.00;;;3.45;;
30617;SDS011;17384;51.214;9.202;2022-07-23T11:32:35;6.90;;;3.53;;
30617;SDS011;17384;51.214;9.202;2022-07-23T11:35:03;5.30;;;3.40;;
30617;SDS011;17384;51.214;9.202;2022-07-23T11:37:43;6.40;;;3.50;;
30617;SDS011;17384;51.214;9.202;2022-07-23T11:40:10;6.15;;;3.55;;
30617;SDS011;17384;51.214;9.202;2022-07-23T11:42:36;6.85;;;3.22;;
30617;SDS011;17384;51.214;9.202;2022-07-23T11:45:03;4.55;;;3.42;;
30617;SDS011;17384;51.214;9.202;2022-07-23T11:47:28;8.60;;;4.68;;
30617;SDS011;17384;51.214;9.202;2022-07-23T11:49:55;5.53;;;3.23;;
30617;SDS011;17384;51.214;9.202;2022-07-23T11:52:20;5.65;;;3.33;;
30617;SDS011;17384;51.214;9.202;2022-07-23T11:54:51;7.13;;;3.85;;
30617;SDS011;17384;51.214;9.202;2022-07-23T11:57:17;4.50;;;3.30;;
30617;SDS011;17384;51.214;9.202;2022-07-23T11:59:43;7.45;;;3.38;;
30617;SDS011;17384;51.214;9.202;2022-07-23T12:02:10;5.13;;;3.85;;
30617;SDS011;17384;51.214;9.202;2022-07-23T12:04:43;7.43;;;4.20;;
30617;SDS011;17384;51.214;9.202;2022-07-23T12:09:53;4.60;;;2.90;;
30617;SDS011;17384;51.214;9.202;2022-07-23T12:12:18;5.07;;;2.95;;
30617;SDS011;17384;51.214;9.202;2022-07-23T12:15:02;5.55;;;3.28;;
30617;SDS011;17384;51.214;9.202;2022-07-23T12:17:29;13.05;;;3.70;;
30617;SDS011;17384;51.214;9.202;2022-07-23T12:19:56;6.75;;;3.03;;
30617;SDS011;17384;51.214;9.202;2022-07-23T12:22:23;6.93;;;3.55;;
30617;SDS011;17384;51.214;9.202;2022-07-23T12:24:58;5.03;;;3.08;;
30617;SDS011;17384;51.214;9.202;2022-07-23T12:27:24;5.00;;;3.05;;
30617;SDS011;17384;51.214;9.202;2022-07-23T12:29:50;7.15;;;2.95;;
30617;SDS011;17384;51.214;9.202;2022-07-23T12:32:19;7.85;;;3.47;;
30617;SDS011;17384;51.214;9.202;2022-07-23T12:34:45;7.00;;;3.05;;
30617;SDS011;17384;51.214;9.202;2022-07-23T12:37:26;9.18;;;3.50;;
30617;SDS011;17384;51.214;9.202;2022-07-23T12:39:52;3.88;;;2.85;;
30617;SDS011;17384;51.214;9.202;2022-07-23T12:42:17;5.00;;;2.72;;
30617;SDS011;17384;51.214;9.202;2022-07-23T12:45:04;5.80;;;3.50;;
30617;SDS011;17384;51.214;9.202;2022-07-23T12:47:29;4.40;;;2.50;;
30617;SDS011;17384;51.214;9.202;2022-07-23T12:49:55;4.53;;;2.90;;
30617;SDS011;17384;51.214;9.202;2022-07-23T12:52:20;7.55;;;2.80;;
30617;SDS011;17384;51.214;9.202;2022-07-23T12:54:45;5.47;;;3.33;;
30617;SDS011;17384;51.214;9.202;2022-07-23T12:57:11;4.47;;;2.90;;
30617;SDS011;17384;51.214;9.202;2022-07-23T12:59:36;6.03;;;3.50;;
30617;SDS011;17384;51.214;9.202;2022-07-23T13:02:02;3.83;;;3.42;;
30617;SDS011;17384;51.214;9.202;2022-07-23T13:04:27;6.37;;;3.07;;
30617;SDS011;17384;51.214;9.202;2022-07-23T13:06:54;4.45;;;3.35;;
30617;SDS011;17384;51.214;9.202;2022-07-23T13:09:25;3.47;;;3.00;;
30617;SDS011;17384;51.214;9.202;2022-07-23T13:11:51;5.13;;;3.45;;
30617;SDS011;17384;51.214;9.202;2022-07-23T13:14:18;3.78;;;3.05;;
30617;SDS011;17384;51.214;9.202;2022-07-23T13:16:46;4.82;;;3.10;;
30617;SDS011;17384;51.214;9.202;2022-07-23T13:19:11;5.63;;;3.53;;
30617;SDS011;17384;51.214;9.202;2022-07-23T13:21:37;4.30;;;3.33;;
30617;SDS011;17384;51.214;9.202;2022-07-23T13:24:02;6.43;;;3.10;;
30617;SDS011;17384;51.214;9.202;2022-07-23T13:26:28;7.93;;;3.08;;
30617;SDS011;17384;51.214;9.202;2022-07-23T13:28:53;6.77;;;3.20;;
30617;SDS011;17384;51.214;9.202;2022-07-23T13:31:19;5.90;;;3.42;;
30617;SDS011;17384;51.214;9.202;2022-07-23T13:33:44;4.05;;;3.13;;
30617;SDS011;17384;51.214;9.202;2022-07-23T13:36:10;5.43;;;3.05;;
30617;SDS011;17384;51.214;9.202;2022-07-23T13:38:35;6.18;;;3.35;;
30617;SDS011;17384;51.214;9.202;2022-07-23T13:41:01;5.87;;;3.37;;
30617;SDS011;17384;51.214;9.202;2022-07-23T13:43:28;6.35;;;3.78;;
30617;SDS011;17384;51.214;9.202;2022-07-23T13:45:53;6.32;;;3.38;;
30617;SDS011;17384;51.214;9.202;2022-07-23T13:48:19;8.23;;;3.70;;
30617;SDS011;17384;51.214;9.202;2022-07-23T13:50:45;4.30;;;3.58;;
30617;SDS011;17384;51.214;9.202;2022-07-23T13:53:12;6.55;;;3.38;;
30617;SDS011;17384;51.214;9.202;2022-07-23T13:55:37;6.75;;;3.28;;
30617;SDS011;17384;51.214;9.202;2022-07-23T13:58:04;4.35;;;3.38;;
30617;SDS011;17384;51.214;9.202;2022-07-23T14:00:29;4.82;;;3.75;;
30617;SDS011;17384;51.214;9.202;2022-07-23T14:02:58;9.07;;;3.92;;
30617;SDS011;17384;51.214;9.202;2022-07-23T14:05:23;4.90;;;3.60;;
30617;SDS011;17384;51.214;9.202;2022-07-23T14:07:48;4.18;;;3.40;;
30617;SDS011;17384;51.214;9.202;2022-07-23T14:10:15;6.85;;;3.33;;
30617;SDS011;17384;51.214;9.202;2022-07-23T14:13:27;4.82;;;3.40;;
30617;SDS011;17384;51.214;9.202;2022-07-23T14:15:34;5.88;;;3.63;;
30617;SDS011;17384;51.214;9.202;2022-07-23T14:17:59;5.22;;;3.65;;
30617;SDS011;17384;51.214;9.202;2022-07-23T14:20:25;6.85;;;3.60;;
30617;SDS011;17384;51.214;9.202;2022-07-23T14:22:50;5.50;;;3.53;;
30617;SDS011;17384;51.214;9.202;2022-07-23T14:25:16;5.63;;;3.58;;
30617;SDS011;17384;51.214;9.202;2022-07-23T14:27:41;6.07;;;3.53;;
30617;SDS011;17384;51.214;9.202;2022-07-23T14:30:07;6.75;;;3.83;;
30617;SDS011;17384;51.214;9.202;2022-07-23T14:32:33;4.50;;;3.53;;
30617;SDS011;17384;51.214;9.202;2022-07-23T14:34:58;5.75;;;3.35;;
30617;SDS011;17384;51.214;9.202;2022-07-23T14:37:24;8.80;;;3.75;;
30617;SDS011;17384;51.214;9.202;2022-07-23T14:39:50;6.90;;;3.65;;
30617;SDS011;17384;51.214;9.202;2022-07-23T14:42:15;7.28;;;3.42;;
30617;SDS011;17384;51.214;9.202;2022-07-23T14:44:40;10.50;;;3.50;;
30617;SDS011;17384;51.214;9.202;2022-07-23T14:47:07;8.32;;;3.78;;
30617;SDS011;17384;51.214;9.202;2022-07-23T14:49:33;4.25;;;3.22;;
30617;SDS011;17384;51.214;9.202;2022-07-23T14:51:59;5.57;;;3.90;;
30617;SDS011;17384;51.214;9.202;2022-07-23T14:54:24;5.70;;;3.40;;
30617;SDS011;17384;51.214;9.202;2022-07-23T14:56:51;11.88;;;4.28;;
30617;SDS011;17384;51.214;9.202;2022-07-23T14:59:17;6.72;;;3.65;;
30617;SDS011;17384;51.214;9.202;2022-07-23T15:01:42;5.80;;;3.92;;
30617;SDS011;17384;51.214;9.202;2022-07-23T15:04:07;4.07;;;3.67;;